Time;durP1;ratioP1;P1;durP2;ratioP2;P2;SDS_P1;SDS_P2;PMS_P1;PMS_P2;Temp;Humidity;BMP_temperature;BMP_pressure;BME280_temperature;BME280_humidity;BME280_pressure;Samples;Min_cycle;Max_cycle;Signal;HPM_P1;HPM_P2
2023/04/22 00:04:01;;;;;;;10.23;8.65;;;;;;;;;;10396624;28;20546;-85
2023/04/22 00:09:04;;;;;;;10.25;7.97;;;;;;;;;;10397135;28;20486;-85
2023/04/22 00:14:06;;;;;;;10.55;8.48;;;;;;;;;;10393832;28;20433;-85
2023/04/22 00:19:08;;;;;;;9.77;8.30;;;;;;;;;;10395158;28;20411;-85
2023/04/22 00:24:11;;;;;;;11.15;8.40;;;;;;;;;;10395462;28;21229;-85
2023/04/22 00:29:13;;;;;;;9.48;8.15;;;;;;;;;;10396117;28;20403;-85
2023/04/22 00:34:16;;;;;;;8.70;7.70;;;;;;;;;;10397462;28;20494;-85
2023/04/22 00:39:19;;;;;;;10.15;7.55;;;;;;;;;;10396812;28;20405;-85
2023/04/22 00:44:22;;;;;;;9.05;7.63;;;;;;;;;;10395816;28;20995;-84
2023/04/22 00:49:26;;;;;;;11.40;7.30;;;;;;;;;;10395452;28;20528;-85
2023/04/22 00:54:29;;;;;;;9.57;8.20;;;;;;;;;;10395186;28;20441;-84
2023/04/22 00:59:31;;;;;;;8.82;7.43;;;;;;;;;;10397267;28;20405;-85
2023/04/22 01:04:33;;;;;;;9.57;7.63;;;;;;;;;;10395504;28;20435;-84
2023/04/22 01:09:38;;;;;;;10.38;7.75;;;;;;;;;;10393585;28;20422;-84
2023/04/22 01:14:40;;;;;;;10.30;7.57;;;;;;;;;;10394570;28;20418;-84
2023/04/22 01:19:43;;;;;;;9.23;7.72;;;;;;;;;;10393367;28;20750;-84
2023/04/22 01:24:46;;;;;;;9.50;7.63;;;;;;;;;;10392328;28;20509;-84
2023/04/22 01:29:48;;;;;;;9.65;7.53;;;;;;;;;;10394378;28;20412;-84
2023/04/22 01:34:50;;;;;;;10.10;7.68;;;;;;;;;;10391420;28;20452;-85
2023/04/22 01:39:54;;;;;;;9.75;7.57;;;;;;;;;;10393788;28;20405;-85
2023/04/22 01:44:55;;;;;;;10.10;7.43;;;;;;;;;;10392074;28;20414;-85
2023/04/22 01:49:57;;;;;;;10.45;7.68;;;;;;;;;;10389207;28;20411;-85
2023/04/22 01:55:02;;;;;;;10.37;7.37;;;;;;;;;;10392225;28;20407;-84
2023/04/22 02:00:07;;;;;;;8.65;7.22;;;;;;;;;;10396785;28;20500;-84
2023/04/22 02:05:09;;;;;;;8.93;7.13;;;;;;;;;;10395089;28;20603;-84
2023/04/22 02:10:13;;;;;;;8.97;7.30;;;;;;;;;;10393386;28;20405;-85
2023/04/22 02:15:15;;;;;;;8.93;7.13;;;;;;;;;;10388007;28;20513;-85
2023/04/22 02:20:16;;;;;;;9.67;7.80;;;;;;;;;;10393739;28;20468;-84
2023/04/22 02:25:20;;;;;;;9.85;7.20;;;;;;;;;;10392156;28;20425;-84
2023/04/22 02:30:22;;;;;;;10.05;7.38;;;;;;;;;;10387795;28;20425;-84
2023/04/22 02:35:24;;;;;;;10.93;8.10;;;;;;;;;;10385137;28;20490;-84
2023/04/22 02:40:27;;;;;;;9.25;7.25;;;;;;;;;;10397777;28;20880;-84
2023/04/22 02:45:29;;;;;;;9.68;6.78;;;;;;;;;;10382563;28;20437;-84
2023/04/22 02:50:31;;;;;;;8.23;7.00;;;;;;;;;;10407038;28;20413;-85
2023/04/22 02:55:34;;;;;;;10.88;7.45;;;;;;;;;;10395169;28;20476;-86
2023/04/22 03:00:36;;;;;;;8.23;7.03;;;;;;;;;;10392209;28;20926;-86
2023/04/22 03:05:38;;;;;;;9.50;7.45;;;;;;;;;;10394797;28;20487;-86
2023/04/22 03:10:41;;;;;;;10.02;7.75;;;;;;;;;;10401019;28;20406;-85
2023/04/22 03:15:43;;;;;;;10.18;7.30;;;;;;;;;;10383461;28;20410;-85
2023/04/22 03:20:45;;;;;;;11.77;7.00;;;;;;;;;;10387465;28;20409;-85
2023/04/22 03:25:48;;;;;;;8.57;7.25;;;;;;;;;;10387466;28;20430;-85
2023/04/22 03:30:50;;;;;;;8.93;7.18;;;;;;;;;;10388835;28;20407;-85
2023/04/22 03:35:53;;;;;;;8.23;6.97;;;;;;;;;;10388209;28;20407;-85
2023/04/22 03:40:57;;;;;;;8.82;7.05;;;;;;;;;;10395078;28;20472;-85
2023/04/22 03:45:59;;;;;;;9.10;7.55;;;;;;;;;;10386032;28;20433;-86
2023/04/22 03:51:01;;;;;;;11.05;7.65;;;;;;;;;;10380436;28;20450;-85
2023/04/22 03:56:05;;;;;;;9.00;7.77;;;;;;;;;;10386321;28;20531;-85
2023/04/22 04:01:07;;;;;;;10.93;7.75;;;;;;;;;;10386066;28;20401;-85
2023/04/22 04:06:08;;;;;;;9.63;7.93;;;;;;;;;;10389017;28;20431;-85
2023/04/22 04:11:11;;;;;;;10.20;7.32;;;;;;;;;;10390070;28;20817;-85
2023/04/22 04:16:14;;;;;;;10.30;7.57;;;;;;;;;;10385057;28;20909;-86
2023/04/22 04:21:15;;;;;;;9.73;7.60;;;;;;;;;;10384650;28;20411;-85
2023/04/22 04:26:19;;;;;;;12.20;8.07;;;;;;;;;;10385997;28;20965;-85
2023/04/22 04:31:21;;;;;;;10.65;7.75;;;;;;;;;;10385778;28;20407;-85
2023/04/22 04:36:24;;;;;;;10.82;7.93;;;;;;;;;;10385364;28;20587;-84
2023/04/22 04:41:28;;;;;;;12.93;8.40;;;;;;;;;;10399175;28;20754;-85
2023/04/22 04:46:31;;;;;;;9.37;7.57;;;;;;;;;;10384016;28;20433;-85
2023/04/22 04:51:33;;;;;;;9.57;7.22;;;;;;;;;;10383920;28;20525;-85
2023/04/22 04:56:36;;;;;;;11.50;8.10;;;;;;;;;;10383912;28;20509;-85
2023/04/22 05:01:38;;;;;;;11.48;8.32;;;;;;;;;;10380611;28;20410;-85
2023/04/22 05:06:40;;;;;;;10.40;8.30;;;;;;;;;;10383340;28;20508;-85
2023/04/22 05:11:43;;;;;;;10.63;7.90;;;;;;;;;;10387892;28;20399;-85
2023/04/22 05:16:45;;;;;;;14.05;7.85;;;;;;;;;;10385555;28;20401;-85
2023/04/22 05:21:47;;;;;;;9.73;8.02;;;;;;;;;;10394087;28;20490;-85
2023/04/22 05:26:50;;;;;;;9.35;7.18;;;;;;;;;;10385548;28;20434;-85
2023/04/22 05:31:52;;;;;;;9.23;6.93;;;;;;;;;;10390677;28;20399;-86
2023/04/22 05:36:54;;;;;;;10.27;7.27;;;;;;;;;;10387316;28;20469;-84
2023/04/22 05:41:57;;;;;;;6.70;5.72;;;;;;;;;;10381857;28;20410;-84
2023/04/22 05:46:59;;;;;;;7.75;6.45;;;;;;;;;;10395601;28;20433;-84
2023/04/22 05:52:01;;;;;;;8.10;7.17;;;;;;;;;;10397767;28;20431;-84
2023/04/22 05:57:04;;;;;;;9.85;7.13;;;;;;;;;;10397936;28;20412;-84
2023/04/22 06:02:06;;;;;;;9.07;6.90;;;;;;;;;;10397282;28;20488;-84
2023/04/22 06:07:08;;;;;;;9.20;6.90;;;;;;;;;;10400960;28;20428;-85
2023/04/22 06:12:11;;;;;;;9.55;7.80;;;;;;;;;;10399883;28;20499;-85
2023/04/22 06:17:13;;;;;;;8.23;6.57;;;;;;;;;;10396484;28;20433;-84
2023/04/22 06:22:15;;;;;;;9.17;7.27;;;;;;;;;;10392190;28;20407;-85
2023/04/22 06:27:18;;;;;;;11.35;7.80;;;;;;;;;;10391950;28;20522;-85
2023/04/22 06:32:20;;;;;;;9.68;8.20;;;;;;;;;;10410697;28;20917;-84
2023/04/22 06:37:22;;;;;;;10.00;7.77;;;;;;;;;;10403299;28;20411;-84
2023/04/22 06:42:25;;;;;;;11.38;7.60;;;;;;;;;;10397472;28;20421;-84
2023/04/22 06:47:27;;;;;;;10.07;8.13;;;;;;;;;;10405320;28;20480;-84
2023/04/22 06:52:29;;;;;;;9.80;7.85;;;;;;;;;;10403346;28;20677;-85
2023/04/22 06:57:32;;;;;;;10.90;7.80;;;;;;;;;;10401407;28;20405;-84
2023/04/22 07:02:34;;;;;;;9.23;7.72;;;;;;;;;;10404260;28;20756;-85
2023/04/22 07:07:36;;;;;;;10.73;8.17;;;;;;;;;;10401436;28;20515;-78
2023/04/22 07:12:39;;;;;;;11.52;8.05;;;;;;;;;;10408996;28;20417;-76
2023/04/22 07:17:40;;;;;;;10.30;8.07;;;;;;;;;;10400735;28;20799;-82
2023/04/22 07:22:42;;;;;;;9.25;7.93;;;;;;;;;;10398549;28;20402;-82
2023/04/22 07:27:45;;;;;;;9.32;8.00;;;;;;;;;;10393074;28;20429;-87
2023/04/22 07:32:47;;;;;;;16.58;11.23;;;;;;;;;;10398751;28;20904;-91
2023/04/22 07:37:49;;;;;;;11.07;8.52;;;;;;;;;;10406830;28;20410;-92
2023/04/22 07:42:52;;;;;;;10.10;8.57;;;;;;;;;;10392198;28;20923;-91
2023/04/22 07:47:54;;;;;;;10.63;8.50;;;;;;;;;;10402175;28;20759;-91
2023/04/22 07:52:56;;;;;;;11.47;8.53;;;;;;;;;;10393805;28;20470;-92
2023/04/22 07:58:02;;;;;;;13.70;9.32;;;;;;;;;;10407149;28;20406;-91
2023/04/22 08:03:04;;;;;;;10.93;8.60;;;;;;;;;;10399626;28;20419;-91
2023/04/22 08:08:07;;;;;;;11.90;8.80;;;;;;;;;;10402982;28;20869;-91
2023/04/22 08:13:10;;;;;;;9.80;8.13;;;;;;;;;;10400330;28;20521;-91
2023/04/22 08:18:12;;;;;;;11.95;7.85;;;;;;;;;;10399792;28;20424;-91
2023/04/22 08:23:15;;;;;;;10.67;8.60;;;;;;;;;;10410979;28;20405;-95
2023/04/22 08:28:20;;;;;;;9.48;7.85;;;;;;;;;;10389015;28;20502;-76
2023/04/22 08:33:23;;;;;;;10.10;8.68;;;;;;;;;;10397692;28;20417;-76
2023/04/22 08:38:26;;;;;;;14.67;11.53;;;;;;;;;;10386746;28;20407;-80
2023/04/22 08:43:32;;;;;;;12.93;9.50;;;;;;;;;;10384269;28;20476;-77
2023/04/22 08:48:33;;;;;;;15.10;9.30;;;;;;;;;;10392003;28;20426;-82
2023/04/22 08:53:35;;;;;;;11.40;7.18;;;;;;;;;;10391566;28;20406;-84
2023/04/22 08:58:40;;;;;;;8.83;6.67;;;;;;;;;;10390914;28;20439;-83
2023/04/22 09:03:42;;;;;;;10.13;7.78;;;;;;;;;;10383509;28;20416;-82
2023/04/22 09:08:44;;;;;;;9.18;7.70;;;;;;;;;;10382637;28;20427;-83
2023/04/22 09:13:47;;;;;;;9.83;7.73;;;;;;;;;;10388623;28;20401;-83
2023/04/22 09:18:50;;;;;;;9.10;7.50;;;;;;;;;;10385618;28;20516;-83
2023/04/22 09:23:54;;;;;;;11.70;8.70;;;;;;;;;;10385730;28;20990;-87
2023/04/22 09:28:59;;;;;;;9.73;7.57;;;;;;;;;;10389862;28;20480;-86
2023/04/22 09:34:01;;;;;;;11.70;8.70;;;;;;;;;;10388968;28;20422;-84
2023/04/22 09:39:06;;;;;;;11.57;8.18;;;;;;;;;;10387350;28;20461;-83
2023/04/22 09:44:14;;;;;;;11.38;8.68;;;;;;;;;;10378437;28;20447;-91
2023/04/22 09:49:17;;;;;;;9.20;7.22;;;;;;;;;;10398847;28;20922;-88
2023/04/22 09:54:18;;;;;;;10.67;7.50;;;;;;;;;;10404421;28;20409;-87
2023/04/22 09:59:22;;;;;;;12.03;8.20;;;;;;;;;;10403058;28;20996;-89
2023/04/22 10:04:24;;;;;;;9.57;7.80;;;;;;;;;;10391040;28;20429;-86
2023/04/22 10:09:26;;;;;;;10.93;8.17;;;;;;;;;;10399576;28;20409;-87
2023/04/22 10:14:29;;;;;;;10.17;7.90;;;;;;;;;;10400644;28;20397;-94
2023/04/22 10:19:32;;;;;;;12.00;8.68;;;;;;;;;;10416381;28;20407;-93
2023/04/22 10:24:36;;;;;;;10.82;8.38;;;;;;;;;;10407404;28;20416;-85
2023/04/22 10:29:42;;;;;;;11.73;8.40;;;;;;;;;;10399460;28;20899;-84
2023/04/22 10:34:45;;;;;;;10.70;8.30;;;;;;;;;;10400821;28;20405;-83
2023/04/22 10:40:09;;;;;;;13.00;9.37;;;;;;;;;;10395750;28;20414;-82
2023/04/22 10:45:14;;;;;;;12.35;8.55;;;;;;;;;;10391193;28;20483;-85
2023/04/22 10:50:20;;;;;;;11.97;8.73;;;;;;;;;;10380219;28;20894;-84
2023/04/22 10:55:22;;;;;;;12.48;9.40;;;;;;;;;;10380833;28;20417;-89
2023/04/22 11:00:44;;;;;;;12.23;9.52;;;;;;;;;;10382379;28;20412;-85
2023/04/22 11:05:46;;;;;;;12.73;7.97;;;;;;;;;;10387217;28;20425;-85
2023/04/22 11:10:49;;;;;;;10.85;8.38;;;;;;;;;;10388731;28;20405;-84
2023/04/22 11:15:55;;;;;;;14.43;9.45;;;;;;;;;;10404844;28;20496;-84
2023/04/22 11:21:04;;;;;;;11.32;8.13;;;;;;;;;;10398700;28;20431;-85
2023/04/22 11:26:06;;;;;;;10.18;7.80;;;;;;;;;;10402045;28;20425;-85
2023/04/22 11:31:10;;;;;;;9.23;6.88;;;;;;;;;;10399121;28;20788;-85
2023/04/22 11:36:12;;;;;;;9.88;7.00;;;;;;;;;;10388540;28;20413;-83
2023/04/22 11:41:14;;;;;;;10.52;8.38;;;;;;;;;;10379096;28;21015;-83
2023/04/22 11:46:27;;;;;;;10.43;8.60;;;;;;;;;;10384131;28;20425;-84
2023/04/22 11:51:29;;;;;;;10.73;8.38;;;;;;;;;;10396127;28;20410;-82
2023/04/22 11:56:37;;;;;;;10.35;7.93;;;;;;;;;;10398536;28;21064;-83
2023/04/22 12:01:43;;;;;;;11.57;8.77;;;;;;;;;;10394873;28;20428;-84
2023/04/22 12:06:47;;;;;;;11.15;8.50;;;;;;;;;;10388146;28;20495;-84
2023/04/22 12:11:51;;;;;;;11.18;8.80;;;;;;;;;;10386800;28;20414;-91
2023/04/22 12:16:54;;;;;;;11.70;8.27;;;;;;;;;;10395747;28;20413;-84
2023/04/22 12:21:57;;;;;;;11.97;8.00;;;;;;;;;;10393153;28;20549;-85
2023/04/22 12:26:58;;;;;;;10.37;8.37;;;;;;;;;;10383590;28;20434;-83
2023/04/22 12:32:01;;;;;;;11.13;8.43;;;;;;;;;;10395774;28;21108;-95
2023/04/22 12:37:03;;;;;;;11.52;8.57;;;;;;;;;;10377096;28;20430;-86
2023/04/22 12:42:06;;;;;;;11.50;8.88;;;;;;;;;;10391556;28;20492;-84
2023/04/22 12:47:09;;;;;;;12.20;8.80;;;;;;;;;;10389116;28;20423;-86
2023/04/22 12:52:11;;;;;;;11.53;8.80;;;;;;;;;;10408361;28;20405;-89
2023/04/22 12:57:13;;;;;;;12.07;9.33;;;;;;;;;;10614520;22;20432;-93
2023/04/22 13:02:16;;;;;;;10.38;8.43;;;;;;;;;;10475099;28;20518;-93
2023/04/22 13:07:19;;;;;;;10.10;7.55;;;;;;;;;;10479944;28;20426;-93
2023/04/22 13:12:21;;;;;;;11.30;9.07;;;;;;;;;;10478946;28;20971;-93
2023/04/22 13:17:25;;;;;;;11.45;8.25;;;;;;;;;;10472489;28;20433;-94
2023/04/22 13:22:26;;;;;;;9.93;7.82;;;;;;;;;;10486877;28;20430;-93
2023/04/22 13:27:28;;;;;;;10.65;7.85;;;;;;;;;;10499910;28;20425;-93
2023/04/22 13:32:32;;;;;;;10.02;7.63;;;;;;;;;;10474783;28;20533;-93
2023/04/22 13:37:34;;;;;;;9.57;7.03;;;;;;;;;;10472074;28;20435;-93
2023/04/22 13:42:36;;;;;;;7.90;6.57;;;;;;;;;;10476465;28;20406;-94
2023/04/22 13:47:39;;;;;;;8.63;7.37;;;;;;;;;;10478985;23;20506;-94
2023/04/22 13:52:41;;;;;;;8.27;6.32;;;;;;;;;;10478548;28;20490;-93
2023/04/22 13:57:44;;;;;;;9.40;7.43;;;;;;;;;;10474309;28;20403;-92
2023/04/22 14:02:47;;;;;;;10.27;7.00;;;;;;;;;;10474954;28;20408;-93
2023/04/22 14:07:51;;;;;;;9.65;7.25;;;;;;;;;;10481463;28;20446;-94
2023/04/22 14:12:53;;;;;;;9.35;7.10;;;;;;;;;;10479277;28;20408;-93
2023/04/22 14:17:56;;;;;;;8.57;6.78;;;;;;;;;;10478187;28;20929;-94
2023/04/22 14:22:59;;;;;;;8.97;6.90;;;;;;;;;;10480859;28;20881;-94
2023/04/22 14:28:02;;;;;;;9.88;6.90;;;;;;;;;;10478266;28;20416;-94
2023/04/22 14:33:06;;;;;;;9.00;7.30;;;;;;;;;;10477843;28;20411;-93
2023/04/22 14:38:10;;;;;;;9.50;7.15;;;;;;;;;;10488073;28;20400;-93
2023/04/22 14:43:13;;;;;;;8.32;6.40;;;;;;;;;;10484269;28;21150;-94
2023/04/22 14:48:16;;;;;;;7.85;6.45;;;;;;;;;;10474845;28;20784;-94
2023/04/22 14:53:18;;;;;;;7.75;6.53;;;;;;;;;;10484999;28;20489;-94
2023/04/22 14:58:20;;;;;;;11.87;9.50;;;;;;;;;;10481759;28;20403;-94
2023/04/22 15:03:23;;;;;;;15.05;10.60;;;;;;;;;;10484945;28;20397;-94
2023/04/22 15:08:25;;;;;;;14.13;11.35;;;;;;;;;;10488753;28;20428;-94
2023/04/22 15:13:26;;;;;;;14.25;10.88;;;;;;;;;;10483707;28;20411;-94
2023/04/22 15:18:30;;;;;;;14.32;10.73;;;;;;;;;;10488234;28;20403;-93
2023/04/22 15:23:32;;;;;;;14.88;11.38;;;;;;;;;;10484622;28;20641;-94
2023/04/22 15:28:34;;;;;;;18.92;12.43;;;;;;;;;;10477103;28;20452;-93
2023/04/22 15:33:37;;;;;;;15.35;11.15;;;;;;;;;;10486430;28;20459;-94
2023/04/22 15:38:39;;;;;;;15.98;11.63;;;;;;;;;;10485062;28;20406;-94
2023/04/22 15:43:41;;;;;;;14.60;10.35;;;;;;;;;;10480911;28;20406;-93
2023/04/22 15:48:46;;;;;;;13.77;10.00;;;;;;;;;;10476474;28;20475;-94
2023/04/22 15:53:48;;;;;;;13.55;10.20;;;;;;;;;;10482173;28;20502;-95
2023/04/22 15:58:50;;;;;;;14.68;10.75;;;;;;;;;;10483809;28;20400;-94
2023/04/22 16:03:53;;;;;;;13.15;9.90;;;;;;;;;;10481056;28;20398;-94
2023/04/22 16:08:55;;;;;;;12.00;9.77;;;;;;;;;;10480089;28;20419;-93
2023/04/22 16:13:57;;;;;;;14.73;9.97;;;;;;;;;;10485509;28;20406;-93
2023/04/22 16:19:00;;;;;;;12.60;9.77;;;;;;;;;;10479986;28;20435;-94
2023/04/22 16:24:02;;;;;;;12.68;9.45;;;;;;;;;;10481175;28;20394;-94
2023/04/22 16:29:04;;;;;;;12.35;9.35;;;;;;;;;;10478300;28;20516;-94
2023/04/22 16:34:07;;;;;;;12.38;9.80;;;;;;;;;;10486438;28;20410;-94
2023/04/22 16:39:09;;;;;;;12.30;9.40;;;;;;;;;;10485699;28;20402;-95
2023/04/22 16:44:10;;;;;;;12.90;9.23;;;;;;;;;;10477191;28;20416;-94
2023/04/22 16:49:14;;;;;;;11.33;8.83;;;;;;;;;;10474068;28;20522;-93
2023/04/22 16:54:15;;;;;;;12.98;8.50;;;;;;;;;;10476949;28;20477;-94
2023/04/22 16:59:17;;;;;;;13.93;9.02;;;;;;;;;;10477107;28;20410;-94
2023/04/22 17:04:20;;;;;;;12.77;9.10;;;;;;;;;;10457801;28;20408;-94
2023/04/22 17:09:22;;;;;;;13.45;9.95;;;;;;;;;;10484264;28;20489;-95
2023/04/22 17:14:24;;;;;;;15.85;9.32;;;;;;;;;;10512014;28;20382;-93
2023/04/22 17:19:28;;;;;;;11.60;9.00;;;;;;;;;;10487490;28;20760;-94
2023/04/22 17:24:30;;;;;;;13.48;9.52;;;;;;;;;;10485470;28;20465;-94
2023/04/22 17:29:31;;;;;;;10.98;8.68;;;;;;;;;;10481793;28;20457;-93
2023/04/22 17:34:35;;;;;;;12.68;9.38;;;;;;;;;;10479414;28;21091;-94
2023/04/22 17:39:38;;;;;;;14.15;10.40;;;;;;;;;;10482161;28;20918;-93
2023/04/22 17:44:40;;;;;;;12.30;8.90;;;;;;;;;;10474978;28;20933;-94
2023/04/22 17:49:43;;;;;;;13.32;9.35;;;;;;;;;;10476556;28;20807;-94
2023/04/22 17:54:45;;;;;;;10.90;7.97;;;;;;;;;;10478095;28;20403;-94
2023/04/22 17:59:47;;;;;;;11.93;8.30;;;;;;;;;;10467681;28;20488;-93
2023/04/22 18:04:51;;;;;;;9.38;7.10;;;;;;;;;;10478891;28;20410;-93
2023/04/22 18:09:52;;;;;;;11.23;7.57;;;;;;;;;;10470244;28;20471;-94
2023/04/22 18:14:54;;;;;;;10.57;8.00;;;;;;;;;;10480611;28;20406;-93
2023/04/22 18:19:57;;;;;;;11.63;8.87;;;;;;;;;;10489495;28;20402;-94
2023/04/22 18:25:00;;;;;;;12.10;9.23;;;;;;;;;;10486049;28;20505;-93
2023/04/22 18:30:02;;;;;;;13.27;9.23;;;;;;;;;;10480174;28;20411;-93
2023/04/22 18:35:07;;;;;;;12.95;9.63;;;;;;;;;;10486324;28;20401;-93
2023/04/22 18:40:09;;;;;;;14.13;9.50;;;;;;;;;;10484265;28;20403;-93
2023/04/22 18:45:12;;;;;;;12.40;9.53;;;;;;;;;;10486130;28;20401;-93
2023/04/22 18:50:15;;;;;;;13.70;9.40;;;;;;;;;;10483283;28;20430;-92
2023/04/22 18:55:17;;;;;;;11.70;8.80;;;;;;;;;;10479162;28;20410;-93
2023/04/22 19:00:19;;;;;;;12.88;9.48;;;;;;;;;;10485805;28;20421;-93
2023/04/22 19:05:22;;;;;;;12.18;9.13;;;;;;;;;;10486097;28;20435;-93
2023/04/22 19:10:24;;;;;;;13.23;9.90;;;;;;;;;;10488027;28;20427;-93
2023/04/22 19:15:25;;;;;;;13.70;11.00;;;;;;;;;;10484911;28;20403;-94
2023/04/22 19:20:29;;;;;;;14.85;10.90;;;;;;;;;;10482941;28;20913;-93
2023/04/22 19:25:30;;;;;;;14.93;10.85;;;;;;;;;;10484048;28;20865;-93
2023/04/22 19:30:32;;;;;;;17.05;12.27;;;;;;;;;;10482670;28;20430;-93
2023/04/22 19:35:35;;;;;;;16.05;11.50;;;;;;;;;;10476648;28;20400;-93
2023/04/22 19:40:37;;;;;;;16.20;11.10;;;;;;;;;;10483248;28;20409;-91
2023/04/22 19:45:39;;;;;;;15.63;11.38;;;;;;;;;;10479508;28;20429;-92
2023/04/22 19:50:43;;;;;;;15.00;11.27;;;;;;;;;;10479949;28;20499;-92
2023/04/22 19:55:46;;;;;;;15.48;11.63;;;;;;;;;;10473518;28;20416;-92
2023/04/22 20:00:49;;;;;;;13.82;10.73;;;;;;;;;;10462500;28;20418;-93
2023/04/22 20:05:54;;;;;;;17.23;11.50;;;;;;;;;;10468563;28;20394;-93
2023/04/22 20:10:57;;;;;;;14.30;10.90;;;;;;;;;;10462845;28;20434;-93
2023/04/22 20:16:00;;;;;;;16.75;11.07;;;;;;;;;;10464450;28;20970;-93
2023/04/22 20:21:04;;;;;;;14.85;10.77;;;;;;;;;;10464530;28;20464;-92
2023/04/22 20:26:06;;;;;;;15.10;11.15;;;;;;;;;;10476362;28;20440;-93
2023/04/22 20:31:08;;;;;;;14.67;11.60;;;;;;;;;;10486738;28;20460;-93
2023/04/22 20:36:14;;;;;;;16.65;12.48;;;;;;;;;;10478509;28;20770;-93
2023/04/22 20:41:17;;;;;;;15.60;11.53;;;;;;;;;;10476960;28;20458;-93
2023/04/22 20:46:21;;;;;;;17.17;11.70;;;;;;;;;;10483270;28;20513;-93
2023/04/22 20:51:25;;;;;;;15.33;11.50;;;;;;;;;;10497387;28;20419;-93
2023/04/22 20:56:27;;;;;;;17.35;11.70;;;;;;;;;;10511206;28;20402;-94
2023/04/22 21:01:29;;;;;;;17.25;11.88;;;;;;;;;;10473446;28;20408;-93
2023/04/22 21:06:33;;;;;;;17.37;12.23;;;;;;;;;;10476847;28;20448;-93
2023/04/22 21:11:36;;;;;;;15.98;11.60;;;;;;;;;;10479496;28;20419;-93
2023/04/22 21:16:40;;;;;;;15.90;11.73;;;;;;;;;;10475647;28;20506;-94
2023/04/22 21:21:46;;;;;;;16.67;11.97;;;;;;;;;;10483216;28;20478;-93
2023/04/22 21:26:48;;;;;;;16.13;11.35;;;;;;;;;;10478665;28;20418;-93
2023/04/22 21:31:50;;;;;;;17.13;12.73;;;;;;;;;;10471685;28;20411;-93
2023/04/22 21:36:53;;;;;;;19.10;12.63;;;;;;;;;;10478866;28;20842;-93
2023/04/22 21:41:57;;;;;;;17.80;12.63;;;;;;;;;;10478805;28;20466;-94
2023/04/22 21:46:59;;;;;;;17.60;11.93;;;;;;;;;;10481330;28;20418;-93
2023/04/22 21:52:02;;;;;;;17.33;12.73;;;;;;;;;;10481381;28;20407;-93
2023/04/22 21:57:04;;;;;;;22.20;15.03;;;;;;;;;;10470826;28;20503;-92
2023/04/22 22:02:06;;;;;;;21.20;14.82;;;;;;;;;;10474701;28;20426;-93
2023/04/22 22:07:11;;;;;;;25.42;17.65;;;;;;;;;;10480455;28;20425;-93
2023/04/22 22:12:14;;;;;;;33.13;23.60;;;;;;;;;;10455568;28;20415;-93
2023/04/22 22:17:16;;;;;;;33.90;22.98;;;;;;;;;;10455122;28;20772;-92
2023/04/22 22:22:19;;;;;;;36.37;24.60;;;;;;;;;;10471282;28;20403;-94
2023/04/22 22:27:21;;;;;;;32.83;22.27;;;;;;;;;;10477949;28;20456;-93
2023/04/22 22:32:23;;;;;;;34.10;23.03;;;;;;;;;;10479410;28;20407;-93
2023/04/22 22:37:26;;;;;;;34.20;23.77;;;;;;;;;;10479128;28;20468;-93
2023/04/22 22:42:28;;;;;;;33.67;23.77;;;;;;;;;;10472506;28;20418;-93
2023/04/22 22:47:30;;;;;;;31.20;20.55;;;;;;;;;;10473577;28;20428;-93
2023/04/22 22:52:33;;;;;;;30.13;20.27;;;;;;;;;;10475498;28;20441;-93
2023/04/22 22:57:35;;;;;;;28.25;19.88;;;;;;;;;;10476089;28;20410;-93
2023/04/22 23:02:37;;;;;;;28.27;20.33;;;;;;;;;;10477348;28;20403;-93
2023/04/22 23:07:40;;;;;;;28.30;20.38;;;;;;;;;;10483598;28;20443;-93
2023/04/22 23:12:42;;;;;;;26.30;19.13;;;;;;;;;;10483898;28;20406;-94
2023/04/22 23:17:43;;;;;;;26.70;19.40;;;;;;;;;;10485365;28;20402;-92
2023/04/22 23:22:49;;;;;;;30.60;21.23;;;;;;;;;;10485743;28;20769;-93
2023/04/22 23:27:51;;;;;;;30.38;21.20;;;;;;;;;;10481070;28;20414;-93
2023/04/22 23:32:57;;;;;;;29.98;20.77;;;;;;;;;;10458311;28;20400;-93
2023/04/22 23:38:01;;;;;;;28.70;20.83;;;;;;;;;;10477746;28;20411;-93
2023/04/22 23:43:03;;;;;;;28.10;20.53;;;;;;;;;;10479945;28;20818;-93
2023/04/22 23:48:04;;;;;;;31.42;21.02;;;;;;;;;;10484840;28;20417;-93
2023/04/22 23:53:08;;;;;;;29.53;21.10;;;;;;;;;;10474556;28;20627;-92
2023/04/22 23:58:10;;;;;;;31.47;21.07;;;;;;;;;;10483029;28;20402;-93
